Time;durP1;ratioP1;P1;durP2;ratioP2;P2;SDS_P1;SDS_P2;PMS_P1;PMS_P2;Temp;Humidity;BMP_temperature;BMP_pressure;BME280_temperature;BME280_humidity;BME280_pressure;Samples;Min_cycle;Max_cycle;Signal;HPM_P1;HPM_P2
2022/08/27 00:02:14;;;;;;;3.15;0.30;;;;;;;28.22;43.03;100854.06;4967968;28;20559;-77
2022/08/27 00:04:43;;;;;;;0.38;0.35;;;;;;;28.09;42.76;100848.44;4965917;28;20078;-74
2022/08/27 00:07:12;;;;;;;1.27;0.20;;;;;;;28.00;43.55;100857.66;4967089;28;20632;-75
2022/08/27 00:09:41;;;;;;;5.75;0.35;;;;;;;27.88;44.13;100860.81;4965513;28;20702;-74
2022/08/27 00:12:12;;;;;;;4.38;0.50;;;;;;;27.71;44.28;100859.66;4971464;28;20514;-74
2022/08/27 00:14:41;;;;;;;1.08;0.45;;;;;;;27.63;44.98;100856.47;4980616;28;20047;-76
2022/08/27 00:17:10;;;;;;;1.30;0.30;;;;;;;27.59;45.03;100849.53;4969829;28;20132;-75
2022/08/27 00:19:39;;;;;;;0.20;0.20;;;;;;;27.55;44.90;100854.09;4969622;28;20050;-77
2022/08/27 00:22:09;;;;;;;1.42;0.10;;;;;;;27.45;45.50;100852.72;4965711;28;20122;-74
2022/08/27 00:24:37;;;;;;;0.35;0.25;;;;;;;27.32;45.17;100852.34;4968128;28;20055;-74
2022/08/27 00:27:16;;;;;;;2.92;0.20;;;;;;;27.22;45.80;100850.97;4963785;28;20489;-75
2022/08/27 00:29:45;;;;;;;2.15;0.30;;;;;;;27.13;45.68;100845.97;4972932;28;20488;-74
2022/08/27 00:32:13;;;;;;;1.10;0.40;;;;;;;27.07;46.21;100846.19;4962327;28;20398;-74
2022/08/27 00:34:42;;;;;;;1.70;0.35;;;;;;;27.02;46.35;100849.03;4966112;28;20082;-73
2022/08/27 00:37:10;;;;;;;1.55;0.32;;;;;;;27.00;47.19;100848.22;4967322;28;20050;-73
2022/08/27 00:39:39;;;;;;;0.63;0.30;;;;;;;26.97;47.22;100856.31;4973725;28;20460;-73
2022/08/27 00:42:16;;;;;;;0.40;0.20;;;;;;;26.88;46.55;100857.50;4976031;28;20424;-75
2022/08/27 00:44:45;;;;;;;0.35;0.20;;;;;;;26.83;46.87;100848.84;4969928;28;20046;-75
2022/08/27 00:47:15;;;;;;;3.67;0.60;;;;;;;26.77;47.05;100851.72;4969607;28;20457;-74
2022/08/27 00:49:48;;;;;;;0.45;0.10;;;;;;;26.72;46.84;100851.03;4976512;28;20121;-74
2022/08/27 00:52:23;;;;;;;2.88;0.30;;;;;;;26.65;47.44;100849.53;4967370;28;20054;-76
2022/08/27 00:54:57;;;;;;;3.13;0.30;;;;;;;26.61;46.65;100847.91;4969500;28;20054;-74
2022/08/27 00:57:28;;;;;;;1.05;0.40;;;;;;;26.56;47.25;100849.84;4973051;28;20117;-77
2022/08/27 00:59:57;;;;;;;1.27;0.25;;;;;;;26.48;47.28;100852.72;4967425;28;20070;-76
2022/08/27 01:02:29;;;;;;;1.95;0.30;;;;;;;26.41;47.15;100857.41;4970976;28;20054;-76
2022/08/27 01:05:01;;;;;;;1.00;0.20;;;;;;;26.32;47.71;100855.94;4971557;28;20555;-75
2022/08/27 01:07:32;;;;;;;2.90;0.30;;;;;;;26.23;47.32;100844.78;4969208;28;20058;-72
2022/08/27 01:10:03;;;;;;;0.47;0.10;;;;;;;26.23;48.45;100852.72;4977875;28;20059;-74
2022/08/27 01:12:34;;;;;;;1.65;0.50;;;;;;;26.18;48.12;100844.03;4986038;28;20575;-76
2022/08/27 01:15:06;;;;;;;6.65;0.50;;;;;;;26.08;47.73;100844.34;4975566;28;20103;-76
2022/08/27 01:17:35;;;;;;;0.95;0.20;;;;;;;26.03;48.45;100846.31;4974783;28;20054;-76
2022/08/27 01:20:08;;;;;;;3.38;0.80;;;;;;;26.01;48.39;100836.66;4963235;28;20587;-75
2022/08/27 01:22:45;;;;;;;0.35;0.20;;;;;;;25.97;48.16;100835.88;4967960;28;20083;-74
2022/08/27 01:25:18;;;;;;;1.95;0.22;;;;;;;25.91;48.58;100838.75;4962640;28;20050;-75
2022/08/27 01:27:47;;;;;;;0.30;0.20;;;;;;;25.82;48.88;100834.59;4965603;28;20054;-73
2022/08/27 01:30:18;;;;;;;0.70;0.30;;;;;;;25.77;49.13;100835.63;4966390;28;20038;-76
2022/08/27 01:32:49;;;;;;;2.53;0.32;;;;;;;25.68;49.29;100839.47;4968792;28;20039;-73
2022/08/27 01:35:20;;;;;;;2.30;0.25;;;;;;;25.59;49.94;100835.34;4966318;28;20047;-75
2022/08/27 01:37:50;;;;;;;0.30;0.22;;;;;;;25.53;49.78;100835.50;4968374;28;20575;-74
2022/08/27 01:40:28;;;;;;;2.10;0.30;;;;;;;25.43;49.78;100834.94;4968086;28;20050;-76
2022/08/27 01:42:58;;;;;;;0.38;0.20;;;;;;;25.39;49.48;100830.66;4987501;28;20054;-73
2022/08/27 01:45:29;;;;;;;0.30;0.20;;;;;;;25.39;50.59;100829.78;4985009;28;20043;-72
2022/08/27 01:47:59;;;;;;;1.65;0.30;;;;;;;25.42;50.90;100834.97;4987666;28;20062;-71
2022/08/27 01:50:30;;;;;;;0.50;0.30;;;;;;;25.42;49.96;100837.63;4984216;28;20072;-75
2022/08/27 01:53:01;;;;;;;2.63;0.40;;;;;;;25.42;50.58;100833.19;4984271;28;20047;-76
2022/08/27 01:55:31;;;;;;;1.10;0.30;;;;;;;25.46;50.29;100826.88;4987816;28;20372;-77
2022/08/27 01:58:00;;;;;;;1.58;0.22;;;;;;;25.45;50.29;100826.97;4980184;28;20651;-79
2022/08/27 02:00:30;;;;;;;0.30;0.28;;;;;;;25.37;50.22;100823.66;4980412;28;20057;-74
2022/08/27 02:02:59;;;;;;;1.80;0.30;;;;;;;25.23;50.62;100811.72;4983574;28;20117;-76
2022/08/27 02:05:30;;;;;;;0.45;0.10;;;;;;;25.17;51.02;100819.78;4991949;28;20147;-72
2022/08/27 02:07:59;;;;;;;0.30;0.20;;;;;;;25.08;52.00;100814.78;4988073;28;20117;-76
2022/08/27 02:10:31;;;;;;;1.35;0.30;;;;;;;25.02;51.70;100815.84;4999059;28;20053;-77
2022/08/27 02:13:01;;;;;;;1.80;0.40;;;;;;;24.96;50.73;100817.78;4990074;28;20097;-79
2022/08/27 02:15:30;;;;;;;0.57;0.30;;;;;;;24.88;51.00;100813.59;4988012;28;20492;-80
2022/08/27 02:17:59;;;;;;;1.27;0.10;;;;;;;24.85;51.58;100811.03;4985383;28;20050;-79
2022/08/27 02:20:28;;;;;;;0.68;0.10;;;;;;;24.83;52.60;100811.97;4983842;28;20046;-83
2022/08/27 02:22:57;;;;;;;0.80;0.10;;;;;;;24.76;51.66;100808.66;4988571;28;20161;-81
2022/08/27 02:25:27;;;;;;;1.90;0.20;;;;;;;24.71;52.77;100807.91;4994280;28;20517;-79
2022/08/27 02:27:58;;;;;;;1.85;0.20;;;;;;;24.69;52.52;100807.06;4990614;28;20141;-81
2022/08/27 02:30:31;;;;;;;0.93;0.30;;;;;;;24.70;53.41;100813.25;4989281;28;20688;-75
2022/08/27 02:32:59;;;;;;;;;;;;;;;24.64;53.59;100812.50;4990854;28;20050;-75
2022/08/27 02:35:30;;;;;;;0.38;0.17;;;;;;;24.65;53.91;100824.84;4965217;28;19934;-75
2022/08/27 02:37:59;;;;;;;0.17;0.17;;;;;;;24.64;53.14;100824.88;4987855;28;20531;-75
2022/08/27 02:40:28;;;;;;;1.38;0.52;;;;;;;24.65;53.33;100821.31;4985998;28;20169;-73
2022/08/27 02:42:56;;;;;;;0.17;0.10;;;;;;;24.63;52.67;100815.22;4992810;28;20165;-73
2022/08/27 02:45:25;;;;;;;0.10;0.10;;;;;;;24.64;52.95;100827.50;4987240;28;20096;-74
2022/08/27 02:47:55;;;;;;;0.43;0.20;;;;;;;24.58;52.05;100820.63;4987710;28;20125;-73
2022/08/27 02:50:24;;;;;;;0.90;0.10;;;;;;;24.54;51.89;100826.03;4990435;28;20056;-72
2022/08/27 02:52:52;;;;;;;1.38;0.10;;;;;;;24.47;51.92;100827.97;4985860;28;20570;-71
2022/08/27 02:55:21;;;;;;;0.65;0.20;;;;;;;24.42;53.21;100836.00;4992050;28;20054;-73
2022/08/27 02:57:49;;;;;;;0.15;0.10;;;;;;;24.40;52.98;100839.59;4987187;28;20097;-68
2022/08/27 03:00:20;;;;;;;0.50;0.13;;;;;;;24.35;54.04;100841.47;4989503;28;20077;-71
2022/08/27 03:02:49;;;;;;;0.50;0.20;;;;;;;24.28;53.21;100848.72;4987865;28;20089;-72
2022/08/27 03:05:20;;;;;;;1.92;0.20;;;;;;;24.24;53.55;100844.44;4990369;28;20105;-70
2022/08/27 03:07:49;;;;;;;1.13;0.20;;;;;;;24.19;53.52;100848.94;4989605;28;20136;-70
2022/08/27 03:10:20;;;;;;;1.10;0.10;;;;;;;24.14;53.16;100840.25;4984891;28;20106;-71
2022/08/27 03:12:49;;;;;;;1.88;0.30;;;;;;;24.11;53.32;100845.63;4989335;28;20693;-72
2022/08/27 03:15:19;;;;;;;1.48;0.63;;;;;;;24.10;54.08;100849.16;4985119;28;20769;-70
2022/08/27 03:20:39;;;;;;;0.80;0.50;;;;;;;23.99;54.21;100852.97;4988572;28;20069;-71
2022/08/27 03:23:08;;;;;;;0.60;0.25;;;;;;;23.96;53.66;100854.78;4996167;28;20542;-70
2022/08/27 03:25:37;;;;;;;0.47;0.40;;;;;;;23.93;53.93;100861.03;4989953;28;20100;-71
2022/08/27 03:28:05;;;;;;;0.38;0.20;;;;;;;23.89;54.09;100854.09;5001215;28;20057;-71
2022/08/27 03:30:34;;;;;;;1.10;0.20;;;;;;;23.86;54.38;100858.59;4989108;28;20042;-71
2022/08/27 03:33:02;;;;;;;0.50;0.20;;;;;;;23.77;54.65;100849.97;4985345;28;20054;-73
2022/08/27 03:35:31;;;;;;;1.45;0.30;;;;;;;23.75;54.80;100861.47;4987888;28;20057;-71
2022/08/27 03:38:02;;;;;;;0.22;0.10;;;;;;;23.70;54.30;100864.19;4986162;28;20046;-72
2022/08/27 03:40:30;;;;;;;0.13;0.10;;;;;;;23.67;54.68;100858.13;4987175;28;20121;-72
2022/08/27 03:42:59;;;;;;;0.20;0.20;;;;;;;23.63;55.16;100858.16;4985464;28;20468;-73
2022/08/27 03:45:28;;;;;;;4.03;0.22;;;;;;;23.60;55.16;100867.97;4986221;28;20046;-71
2022/08/27 03:47:56;;;;;;;0.22;0.10;;;;;;;23.58;55.24;100865.34;4989494;28;20042;-71
2022/08/27 03:50:25;;;;;;;2.47;0.32;;;;;;;23.59;54.90;100859.16;4980842;28;20564;-72
2022/08/27 03:52:54;;;;;;;0.25;0.20;;;;;;;23.58;55.53;100875.03;4988781;28;20058;-72
2022/08/27 03:55:24;;;;;;;1.55;0.20;;;;;;;23.53;55.41;100871.66;4985858;28;20053;-71
2022/08/27 03:57:53;;;;;;;0.38;0.20;;;;;;;23.50;54.90;100872.59;4986703;28;20043;-73
2022/08/27 04:00:23;;;;;;;0.30;0.15;;;;;;;23.51;55.29;100876.94;4986352;28;21261;-71
2022/08/27 04:02:52;;;;;;;0.57;0.30;;;;;;;23.50;55.43;100883.16;4987013;28;20062;-72
2022/08/27 04:05:21;;;;;;;1.75;0.20;;;;;;;23.47;55.62;100888.47;4982170;28;20126;-71
2022/08/27 04:07:50;;;;;;;0.40;0.20;;;;;;;23.45;55.40;100889.41;4985593;28;20058;-72
2022/08/27 04:10:19;;;;;;;2.08;0.22;;;;;;;23.40;55.62;100887.75;4985876;28;20057;-72
2022/08/27 04:12:49;;;;;;;0.30;0.10;;;;;;;23.39;56.04;100879.88;4989323;28;20058;-73
2022/08/27 04:15:18;;;;;;;0.15;0.00;;;;;;;23.36;55.69;100885.19;4989055;28;20132;-72
2022/08/27 04:17:47;;;;;;;0.90;0.20;;;;;;;23.34;56.03;100887.91;4988276;28;20057;-78
2022/08/27 04:20:15;;;;;;;0.10;0.05;;;;;;;23.27;56.00;100893.31;4989020;28;20046;-75
2022/08/27 04:22:44;;;;;;;0.10;0.05;;;;;;;23.23;56.81;100889.00;4994798;28;20448;-75
2022/08/27 04:25:13;;;;;;;0.32;0.10;;;;;;;23.20;56.53;100895.22;4991315;28;20054;-76
2022/08/27 04:27:42;;;;;;;0.10;0.10;;;;;;;23.21;56.92;100889.91;4983223;28;20046;-74
2022/08/27 04:30:14;;;;;;;0.22;0.10;;;;;;;23.23;56.91;100891.63;4987637;28;20160;-73
2022/08/27 04:32:43;;;;;;;0.13;0.10;;;;;;;23.21;56.79;100882.00;4988393;28;20073;-74
2022/08/27 04:35:12;;;;;;;0.15;0.10;;;;;;;23.15;56.84;100871.53;4988685;28;20054;-76
2022/08/27 04:37:41;;;;;;;0.10;0.10;;;;;;;23.18;57.21;100873.25;4988119;28;20062;-76
2022/08/27 04:40:10;;;;;;;0.35;0.10;;;;;;;23.14;56.68;100877.75;4990205;28;20082;-76
2022/08/27 04:42:39;;;;;;;0.82;0.40;;;;;;;23.10;56.75;100881.34;4984858;28;20058;-73
2022/08/27 04:45:09;;;;;;;0.08;0.00;;;;;;;23.06;56.82;100882.28;4986183;28;20502;-76
2022/08/27 04:47:40;;;;;;;0.10;0.10;;;;;;;23.03;56.97;100877.09;4984552;28;20098;-73
2022/08/27 04:50:09;;;;;;;5.15;0.35;;;;;;;23.00;57.18;100877.16;4987848;28;20493;-76
2022/08/27 04:52:37;;;;;;;0.10;0.10;;;;;;;22.97;57.39;100878.03;4989694;28;20042;-73
2022/08/27 04:55:07;;;;;;;0.30;0.10;;;;;;;22.94;57.31;100885.16;4987218;28;20066;-77
2022/08/27 04:57:36;;;;;;;0.20;0.20;;;;;;;22.87;58.19;100881.75;4986032;28;20057;-74
2022/08/27 05:00:07;;;;;;;0.10;0.10;;;;;;;22.79;57.91;100884.56;4984432;28;20054;-78
2022/08/27 05:02:35;;;;;;;0.45;0.28;;;;;;;22.75;58.60;100893.41;4984179;28;20047;-75
2022/08/27 05:05:06;;;;;;;0.35;0.20;;;;;;;22.71;58.60;100889.09;4984658;28;20046;-75
2022/08/27 05:07:35;;;;;;;0.10;0.10;;;;;;;22.65;58.51;100881.28;4987831;28;20050;-73
2022/08/27 05:10:03;;;;;;;0.10;0.00;;;;;;;22.64;58.87;100883.97;4984119;28;20055;-74
2022/08/27 05:12:32;;;;;;;0.52;0.20;;;;;;;22.58;58.55;100891.06;4985312;28;20058;-75
2022/08/27 05:15:00;;;;;;;0.45;0.10;;;;;;;22.54;58.69;100889.41;4981374;28;20108;-73
2022/08/27 05:17:30;;;;;;;0.15;0.10;;;;;;;22.53;59.48;100885.03;4980870;28;20725;-76
2022/08/27 05:19:58;;;;;;;0.00;0.00;;;;;;;22.54;58.97;100877.97;4988519;28;20066;-75
2022/08/27 05:22:29;;;;;;;0.55;0.20;;;;;;;22.51;59.02;100883.31;4985116;28;20065;-72
2022/08/27 05:24:57;;;;;;;0.00;0.00;;;;;;;22.50;58.80;100876.31;4984723;28;20065;-71
2022/08/27 05:27:26;;;;;;;0.10;0.08;;;;;;;22.50;59.17;100886.88;4982238;28;20433;-71
2022/08/27 05:29:55;;;;;;;0.28;0.10;;;;;;;22.49;59.04;100893.00;4981241;28;20517;-73
2022/08/27 05:32:23;;;;;;;0.20;0.20;;;;;;;22.43;59.26;100895.78;4989504;28;20451;-72
2022/08/27 05:34:52;;;;;;;0.10;0.10;;;;;;;22.29;59.45;100881.06;4988306;28;20501;-74
2022/08/27 05:37:20;;;;;;;0.38;0.20;;;;;;;22.31;59.70;100892.44;4989045;28;20640;-71
2022/08/27 05:39:51;;;;;;;1.30;0.13;;;;;;;22.24;59.94;100904.00;4988719;28;20142;-73
2022/08/27 05:42:20;;;;;;;0.00;0.00;;;;;;;22.13;60.11;100908.53;4998606;28;20050;-72
2022/08/27 05:44:48;;;;;;;0.10;0.10;;;;;;;22.06;60.85;100907.75;4989991;28;20074;-71
2022/08/27 05:47:17;;;;;;;0.10;0.10;;;;;;;22.00;61.10;100906.97;4989070;28;20105;-71
2022/08/27 05:49:45;;;;;;;0.52;0.20;;;;;;;21.95;60.74;100910.53;4987701;28;20046;-71
2022/08/27 05:52:14;;;;;;;0.40;0.20;;;;;;;21.89;61.62;100905.34;4989433;28;20634;-71
2022/08/27 05:54:43;;;;;;;0.10;0.08;;;;;;;21.84;61.45;100907.19;4987894;28;20562;-71
2022/08/27 05:57:13;;;;;;;0.30;0.10;;;;;;;21.80;62.44;100910.75;4988484;28;20054;-72
2022/08/27 06:02:27;;;;;;;0.40;0.10;;;;;;;21.73;62.09;100906.47;5001359;28;20049;-71
2022/08/27 06:04:56;;;;;;;0.43;0.20;;;;;;;21.69;62.61;100902.13;4987534;28;20056;-70
2022/08/27 06:07:25;;;;;;;0.10;0.10;;;;;;;21.72;62.52;100907.38;4982384;28;20049;-71
2022/08/27 06:09:53;;;;;;;0.70;0.20;;;;;;;21.70;62.74;100898.63;4978388;28;20054;-72
2022/08/27 06:12:23;;;;;;;0.20;0.10;;;;;;;21.67;62.96;100901.28;4987247;28;20043;-72
2022/08/27 06:14:52;;;;;;;0.40;0.17;;;;;;;21.64;63.62;100907.47;4988785;28;20045;-71
2022/08/27 06:17:21;;;;;;;0.45;0.20;;;;;;;21.63;63.18;100911.00;4980303;28;20104;-71
2022/08/27 06:19:49;;;;;;;1.02;0.22;;;;;;;21.62;63.21;100906.63;4994879;28;20050;-71
2022/08/27 06:22:18;;;;;;;1.27;0.10;;;;;;;21.61;63.46;100909.28;4988722;28;20132;-71
2022/08/27 06:24:46;;;;;;;0.52;0.20;;;;;;;21.58;63.43;100898.78;4991767;28;20930;-70
2022/08/27 06:27:18;;;;;;;1.42;0.20;;;;;;;21.58;63.44;100893.50;4984597;28;20046;-71
2022/08/27 06:29:48;;;;;;;0.20;0.13;;;;;;;21.56;64.20;100903.22;4987760;28;20058;-71
2022/08/27 06:32:18;;;;;;;0.10;0.10;;;;;;;21.56;63.66;100905.88;4988169;28;20478;-72
2022/08/27 06:34:47;;;;;;;0.13;0.10;;;;;;;21.55;64.09;100904.97;4987678;28;20129;-71
2022/08/27 06:37:16;;;;;;;0.70;0.10;;;;;;;21.59;63.83;100901.41;4980399;28;20077;-72
2022/08/27 06:39:44;;;;;;;0.10;0.08;;;;;;;21.63;63.62;100903.13;4988855;28;20057;-71
2022/08/27 06:42:14;;;;;;;0.00;0.00;;;;;;;21.64;63.54;100910.09;4986618;28;20054;-73
2022/08/27 06:44:42;;;;;;;0.45;0.05;;;;;;;21.68;63.51;100911.81;4988292;28;20892;-71
2022/08/27 06:47:13;;;;;;;0.20;0.00;;;;;;;21.69;63.75;100910.03;4989170;28;20563;-71
2022/08/27 06:49:42;;;;;;;0.03;0.03;;;;;;;21.69;63.51;100910.94;4983203;28;20068;-71
2022/08/27 06:52:10;;;;;;;0.10;0.10;;;;;;;21.67;63.41;100899.56;4988385;28;20054;-72
2022/08/27 06:54:39;;;;;;;0.00;0.00;;;;;;;21.65;62.72;100909.22;4987554;28;20049;-72
2022/08/27 06:57:08;;;;;;;0.20;0.10;;;;;;;21.61;62.79;100906.66;4982636;28;20105;-73
2022/08/27 06:59:37;;;;;;;0.20;0.10;;;;;;;21.60;62.90;100912.81;4991476;28;20592;-72
2022/08/27 07:02:05;;;;;;;1.25;0.10;;;;;;;21.57;62.87;100918.97;4981834;28;20057;-70
2022/08/27 07:04:35;;;;;;;0.00;0.00;;;;;;;21.54;62.95;100912.00;4987619;28;20050;-71
2022/08/27 07:07:05;;;;;;;0.68;0.20;;;;;;;21.50;63.34;100910.28;4977834;28;20062;-71
2022/08/27 07:09:35;;;;;;;0.10;0.08;;;;;;;21.46;63.47;100911.25;4998323;28;20058;-72
2022/08/27 07:12:04;;;;;;;0.13;0.00;;;;;;;21.41;63.56;100913.03;4991387;28;20653;-72
2022/08/27 07:14:33;;;;;;;0.05;0.00;;;;;;;21.34;63.57;100916.63;4990791;28;20105;-72
2022/08/27 07:17:02;;;;;;;0.85;0.05;;;;;;;21.30;63.64;100910.53;4992559;28;20120;-72
2022/08/27 07:19:31;;;;;;;0.30;0.00;;;;;;;21.27;63.93;100912.31;4988247;28;20548;-72
2022/08/27 07:22:01;;;;;;;0.00;0.00;;;;;;;21.16;63.72;100906.31;4985766;28;20134;-72
2022/08/27 07:24:29;;;;;;;0.75;0.10;;;;;;;21.17;64.42;100915.97;4987100;28;20046;-72
2022/08/27 07:26:58;;;;;;;0.35;0.10;;;;;;;21.13;64.80;100929.13;4983155;28;20050;-71
2022/08/27 07:29:27;;;;;;;0.00;0.00;;;;;;;21.08;64.73;100935.34;4992860;28;20054;-71
2022/08/27 07:31:55;;;;;;;0.00;0.00;;;;;;;21.01;64.89;100934.53;4985032;28;20097;-72
2022/08/27 07:34:24;;;;;;;0.00;0.00;;;;;;;20.90;64.54;100936.41;4994433;28;20056;-71
2022/08/27 07:36:53;;;;;;;0.10;0.03;;;;;;;20.81;65.26;100941.78;4986268;28;20725;-73
2022/08/27 07:39:23;;;;;;;0.52;0.10;;;;;;;20.57;63.43;100933.22;4988464;28;20053;-71
2022/08/27 07:44:37;;;;;;;1.85;0.10;;;;;;;20.38;63.26;100939.47;4965825;28;20057;-71
2022/08/27 07:47:06;;;;;;;0.13;0.10;;;;;;;20.30;63.01;100942.19;4968914;28;20134;-71
2022/08/27 07:49:36;;;;;;;1.38;0.10;;;;;;;20.19;63.43;100937.00;4964277;28;20059;-70
2022/08/27 07:52:05;;;;;;;0.77;0.10;;;;;;;20.10;63.20;100942.31;4969296;28;20058;-70
2022/08/27 07:54:35;;;;;;;0.75;0.10;;;;;;;20.00;63.20;100941.50;4967858;28;20043;-70
2022/08/27 07:57:04;;;;;;;0.38;0.10;;;;;;;19.91;63.82;100925.81;4967296;28;20050;-69
2022/08/27 07:59:32;;;;;;;1.05;0.10;;;;;;;19.84;63.11;100930.22;4966017;28;20054;-70
2022/08/27 08:02:01;;;;;;;0.28;0.15;;;;;;;19.77;63.63;100927.63;4965277;28;20079;-71
2022/08/27 08:04:29;;;;;;;0.15;0.10;;;;;;;19.73;63.57;100941.69;4965941;28;20051;-70
2022/08/27 08:06:58;;;;;;;0.95;0.20;;;;;;;19.68;63.77;100952.16;4968065;28;20078;-71
2022/08/27 08:09:26;;;;;;;1.00;0.28;;;;;;;19.60;63.50;100948.69;4968292;28;20042;-70
2022/08/27 08:11:57;;;;;;;0.20;0.20;;;;;;;19.53;64.20;100941.72;4976158;28;20496;-69
2022/08/27 08:14:25;;;;;;;0.45;0.25;;;;;;;19.45;64.61;100933.91;4977421;28;20050;-70
2022/08/27 08:16:54;;;;;;;0.13;0.10;;;;;;;19.40;64.12;100943.50;4966560;28;20046;-69
2022/08/27 08:19:22;;;;;;;0.43;0.20;;;;;;;19.35;64.06;100946.16;4974354;28;20582;-69
2022/08/27 08:21:51;;;;;;;0.63;0.20;;;;;;;19.27;64.86;100945.34;4966240;28;20497;-70
2022/08/27 08:24:19;;;;;;;0.17;0.10;;;;;;;19.26;64.52;100951.44;4959019;28;20485;-69
2022/08/27 08:26:48;;;;;;;0.80;0.20;;;;;;;19.24;64.00;100950.56;4973095;28;20531;-70
2022/08/27 08:29:25;;;;;;;0.13;0.05;;;;;;;19.25;63.58;100954.94;4966559;28;20066;-70
2022/08/27 08:31:53;;;;;;;1.35;0.30;;;;;;;19.24;64.22;100951.47;4966057;28;20553;-71
2022/08/27 08:34:22;;;;;;;0.22;0.10;;;;;;;19.27;63.66;100947.97;4968823;28;20047;-71
2022/08/27 08:36:50;;;;;;;0.35;0.20;;;;;;;19.26;62.90;100956.69;4962791;28;20497;-71
2022/08/27 08:39:20;;;;;;;0.30;0.17;;;;;;;19.24;63.11;100954.09;4962896;28;20046;-70
2022/08/27 08:41:53;;;;;;;0.20;0.10;;;;;;;19.22;63.05;100949.72;4974233;28;20718;-70
2022/08/27 08:44:31;;;;;;;0.35;0.10;;;;;;;19.17;63.23;100961.97;4974180;28;20674;-71
2022/08/27 08:47:03;;;;;;;0.17;0.10;;;;;;;19.12;63.50;100954.09;4964490;28;20051;-70
2022/08/27 08:49:43;;;;;;;0.90;0.20;;;;;;;19.13;64.36;100957.63;4961178;28;20055;-70
2022/08/27 08:52:22;;;;;;;0.47;0.10;;;;;;;19.12;63.85;100963.72;4971545;28;20057;-70
2022/08/27 08:54:51;;;;;;;0.32;0.10;;;;;;;19.14;63.76;100959.34;4967476;28;20058;-71
2022/08/27 08:57:31;;;;;;;0.03;0.03;;;;;;;19.15;63.86;100968.94;4968562;28;20638;-69
2022/08/27 09:00:09;;;;;;;0.25;0.13;;;;;;;19.15;64.12;100963.72;4965468;28;20105;-69
2022/08/27 09:02:37;;;;;;;0.30;0.10;;;;;;;19.16;64.51;100965.47;4964979;28;20051;-70
2022/08/27 09:05:10;;;;;;;2.85;0.30;;;;;;;19.18;63.66;100961.97;4970114;28;20051;-70
2022/08/27 09:07:49;;;;;;;;;;;;;;;19.18;64.08;100961.97;4968122;28;20055;-70
2022/08/27 09:10:27;;;;;;;0.00;0.00;;;;;;;19.19;63.90;100947.97;4965724;28;20017;-70
2022/08/27 09:13:02;;;;;;;0.45;0.10;;;;;;;19.15;63.89;100937.47;4964020;28;21002;-69
2022/08/27 09:15:37;;;;;;;0.10;0.00;;;;;;;19.20;64.40;100960.22;4962721;28;20620;-70
2022/08/27 09:18:07;;;;;;;2.60;0.20;;;;;;;19.19;64.26;100949.72;4970113;28;20051;-70
2022/08/27 09:20:37;;;;;;;0.93;0.10;;;;;;;19.20;63.48;100956.72;4969419;28;20042;-70
2022/08/27 09:23:12;;;;;;;0.40;0.13;;;;;;;19.20;63.54;100946.22;4967459;28;20050;-70
2022/08/27 09:25:43;;;;;;;0.22;0.10;;;;;;;19.19;63.91;100944.47;4966347;28;20624;-70
2022/08/27 09:31:04;;;;;;;1.80;0.17;;;;;;;19.21;63.57;100954.06;4968739;28;20793;-71
2022/08/27 09:33:32;;;;;;;0.60;0.10;;;;;;;19.18;64.02;100947.97;4970242;28;20051;-70
2022/08/27 09:36:04;;;;;;;0.20;0.10;;;;;;;19.23;63.38;100961.94;4965295;28;20050;-69
2022/08/27 09:38:35;;;;;;;0.30;0.20;;;;;;;19.22;63.84;100966.34;4971517;28;20620;-70
2022/08/27 09:41:08;;;;;;;0.43;0.10;;;;;;;19.24;63.84;100967.22;4974730;28;20054;-72
2022/08/27 09:43:38;;;;;;;1.10;0.10;;;;;;;19.25;63.39;100968.06;4980168;28;20050;-71
2022/08/27 09:46:21;;;;;;;1.38;0.17;;;;;;;19.24;63.49;100972.44;4981809;28;20121;-70
2022/08/27 09:48:50;;;;;;;0.13;0.10;;;;;;;19.22;63.19;100963.72;4985071;28;20061;-70
2022/08/27 09:51:23;;;;;;;0.22;0.20;;;;;;;19.21;63.40;100976.81;4988626;28;20115;-70
2022/08/27 09:53:54;;;;;;;0.10;0.10;;;;;;;19.19;63.26;100978.56;4984316;28;20599;-70
2022/08/27 09:56:29;;;;;;;1.75;0.25;;;;;;;19.19;63.87;100976.81;4986251;28;20042;-70
2022/08/27 09:59:06;;;;;;;0.10;0.10;;;;;;;19.16;63.47;100983.84;4980716;28;20046;-70
2022/08/27 10:01:38;;;;;;;0.77;0.20;;;;;;;19.11;63.42;100975.97;4986227;28;20066;-71
2022/08/27 10:04:09;;;;;;;0.45;0.13;;;;;;;19.08;63.48;100977.72;4987604;28;20124;-70
2022/08/27 10:06:44;;;;;;;0.10;0.10;;;;;;;19.03;63.60;100965.50;4987930;28;20559;-71
2022/08/27 10:09:18;;;;;;;0.57;0.20;;;;;;;19.01;63.84;100977.75;4987551;28;20108;-71
2022/08/27 10:11:51;;;;;;;0.10;0.10;;;;;;;19.03;63.69;100978.63;4987993;28;20471;-70
2022/08/27 10:14:27;;;;;;;0.10;0.10;;;;;;;19.02;64.06;100971.63;4986535;28;20051;-70
2022/08/27 10:17:07;;;;;;;0.60;0.20;;;;;;;19.09;64.81;100974.25;4986217;28;20426;-69
2022/08/27 10:19:48;;;;;;;0.52;0.20;;;;;;;19.11;64.40;100970.72;4987998;28;20042;-71
2022/08/27 10:22:30;;;;;;;0.25;0.10;;;;;;;19.11;64.45;100968.09;4988073;28;20077;-70
2022/08/27 10:25:09;;;;;;;0.30;0.20;;;;;;;19.11;63.53;100962.00;4991404;28;20117;-70
2022/08/27 10:27:46;;;;;;;0.30;0.20;;;;;;;19.11;63.60;100969.88;4989496;28;20058;-69
2022/08/27 10:30:17;;;;;;;0.43;0.10;;;;;;;19.08;63.95;100964.59;4990762;28;20519;-70
2022/08/27 10:33:01;;;;;;;0.10;0.10;;;;;;;19.09;63.96;100966.38;4987671;28;20669;-71
2022/08/27 10:35:36;;;;;;;0.70;0.20;;;;;;;19.10;63.66;100960.22;4984771;28;20050;-70
2022/08/27 10:38:14;;;;;;;1.38;0.38;;;;;;;19.09;63.40;100963.75;4987102;28;20050;-70
2022/08/27 10:40:49;;;;;;;0.52;0.30;;;;;;;19.11;63.66;100977.72;4986715;28;20110;-71
2022/08/27 10:43:52;;;;;;;0.38;0.20;;;;;;;19.10;63.75;100986.47;4991026;28;20050;-71
2022/08/27 10:46:54;;;;;;;0.63;0.32;;;;;;;19.08;62.64;100993.44;4965632;28;20453;-69
2022/08/27 10:49:33;;;;;;;0.98;0.30;;;;;;;19.08;62.89;100998.69;4980066;28;20046;-70
2022/08/27 10:52:10;;;;;;;1.55;0.35;;;;;;;19.09;62.46;100997.84;4991413;28;20054;-70
2022/08/27 10:54:43;;;;;;;3.13;0.50;;;;;;;19.08;62.27;101007.47;4989936;28;20096;-70
2022/08/27 10:57:17;;;;;;;0.80;0.30;;;;;;;19.03;62.54;101007.47;4985962;28;20057;-70
2022/08/27 10:59:54;;;;;;;2.10;0.40;;;;;;;19.00;62.39;101017.94;4988645;28;20435;-69
2022/08/27 11:02:34;;;;;;;2.47;0.60;;;;;;;18.93;61.97;101026.69;4991542;28;20464;-70
2022/08/27 11:05:17;;;;;;;3.15;0.63;;;;;;;18.90;62.45;101026.72;4987927;28;20062;-69
2022/08/27 11:07:52;;;;;;;2.28;0.73;;;;;;;18.88;62.79;101022.34;4985769;28;20437;-69
2022/08/27 11:10:24;;;;;;;1.23;0.60;;;;;;;18.79;62.34;101008.34;4988569;28;20495;-70
2022/08/27 11:12:58;;;;;;;1.67;0.63;;;;;;;18.82;62.12;101015.34;4985979;28;20051;-70
2022/08/27 11:15:31;;;;;;;2.00;1.10;;;;;;;18.74;61.89;101025.81;4993111;28;20038;-69
2022/08/27 11:18:06;;;;;;;1.23;0.50;;;;;;;18.68;62.79;101014.44;4985069;28;20050;-71
2022/08/27 11:20:44;;;;;;;8.25;0.82;;;;;;;18.67;61.92;101028.41;4990422;28;20073;-71
2022/08/27 11:23:17;;;;;;;3.25;0.98;;;;;;;18.65;61.51;101030.19;4986734;28;20046;-71
2022/08/27 11:25:52;;;;;;;1.88;0.70;;;;;;;18.66;61.78;101034.53;4993790;28;20076;-71
2022/08/27 11:28:24;;;;;;;4.47;0.90;;;;;;;18.65;61.73;101030.19;4984956;28;20109;-70
2022/08/27 11:31:02;;;;;;;2.67;0.70;;;;;;;18.63;62.00;101031.03;4989361;28;20120;-71
2022/08/27 11:33:40;;;;;;;1.90;0.60;;;;;;;18.62;62.31;101039.78;4978275;28;20047;-71
2022/08/27 11:36:32;;;;;;;1.25;0.60;;;;;;;18.61;62.04;101045.88;4981324;28;20042;-71
2022/08/27 11:39:04;;;;;;;2.23;0.53;;;;;;;18.57;61.74;101036.25;4983504;28;20512;-71
2022/08/27 11:41:55;;;;;;;3.42;0.82;;;;;;;18.55;61.91;101043.22;4978297;28;20778;-68
2022/08/27 11:44:27;;;;;;;2.00;0.60;;;;;;;18.52;61.11;101040.63;4991162;28;20062;-69
2022/08/27 11:46:58;;;;;;;1.88;0.80;;;;;;;18.51;60.91;101038.88;4981303;28;20046;-70
2022/08/27 11:49:31;;;;;;;3.13;0.90;;;;;;;18.49;61.38;101043.25;4989473;28;20058;-69
2022/08/27 11:52:07;;;;;;;1.67;0.60;;;;;;;18.47;60.93;101046.75;4978521;28;20501;-69
2022/08/27 11:54:47;;;;;;;3.85;0.80;;;;;;;18.45;60.66;101048.47;4983253;28;20393;-70
2022/08/27 11:57:25;;;;;;;5.15;0.68;;;;;;;18.43;60.35;101043.22;4986473;28;20039;-71